Time;durP1;ratioP1;P1;durP2;ratioP2;P2;SDS_P1;SDS_P2;PMS_P1;PMS_P2;Temp;Humidity;BMP_temperature;BMP_pressure;BME280_temperature;BME280_humidity;BME280_pressure;Samples;Min_cycle;Max_cycle;Signal;HPM_P1;HPM_P2
2021/03/10 00:00:54;;;;;;;;;;;;;;;27.17;22.36;101144.25;5095793;28;724;-43
2021/03/10 00:03:19;;;;;;;;;;;;;;;27.25;22.11;101138.84;5096732;28;747;-43
2021/03/10 00:05:44;;;;;;;;;;;;;;;26.89;22.64;101138.22;5096567;28;763;-43
2021/03/10 00:08:09;;;;;;;;;;;;;;;26.67;23.01;101128.16;5096193;28;747;-42
2021/03/10 00:10:35;;;;;;;;;;;;;;;26.67;23.14;101130.84;5096689;28;809;-42
2021/03/10 00:13:00;;;;;;;;;;;;;;;27.36;22.12;101135.75;5095743;28;1963;-42
2021/03/10 00:15:47;;;;;;;;;;;;;;;27.53;21.85;101140.25;5096606;28;775;-42
2021/03/10 00:18:12;;;;;;;;;;;;;;;26.92;22.58;101131.66;5096404;28;787;-41
2021/03/10 00:20:37;;;;;;;;;;;;;;;26.75;22.80;101126.28;5096431;28;803;-41
2021/03/10 00:23:02;;;;;;;;;;;;;;;25.94;24.44;101123.41;5096047;28;815;-42
2021/03/10 00:25:28;;;;;;;;;;;;;;;26.86;23.04;101122.38;5096437;28;742;-42
2021/03/10 00:27:53;;;;;;;;;;;;;;;26.89;22.77;101119.34;5095384;28;962;-42
2021/03/10 00:30:19;;;;;;;;;;;;;;;26.80;23.05;101120.38;5096054;28;1079;-43
2021/03/10 00:32:44;;;;;;;;;;;;;;;26.50;23.70;101114.69;5096212;28;767;-43
2021/03/10 00:35:09;;;;;;;;;;;;;;;26.50;23.81;101112.84;5096344;28;1965;-42
2021/03/10 00:37:35;;;;;;;;;;;;;;;26.90;23.06;101112.09;5096338;28;901;-42
2021/03/10 00:40:00;;;;;;;;;;;;;;;26.91;22.93;101113.75;5096500;28;803;-43
2021/03/10 00:42:25;;;;;;;;;;;;;;;26.86;23.37;101110.75;5095288;28;1021;-42
2021/03/10 00:44:51;;;;;;;;;;;;;;;26.71;23.55;101108.75;5096087;28;775;-42
2021/03/10 00:47:16;;;;;;;;;;;;;;;27.57;22.45;101107.28;5096311;28;751;-42
2021/03/10 00:49:42;;;;;;;;;;;;;;;27.49;22.46;101094.66;5096498;28;818;-43
2021/03/10 00:52:07;;;;;;;;;;;;;;;27.22;22.83;101091.44;5096056;28;767;-43
2021/03/10 00:54:33;;;;;;;;;;;;;;;27.01;22.97;101081.16;5095610;28;1929;-43
2021/03/10 00:56:58;;;;;;;;;;;;;;;26.58;23.93;101081.44;5084008;28;851;-43
2021/03/10 00:59:23;;;;;;;;;;;;;;;27.66;22.58;101075.63;5075707;28;786;-43
2021/03/10 01:01:49;;;;;;;;;;;;;;;27.65;22.65;101070.41;5079099;28;770;-43
2021/03/10 01:04:14;;;;;;;;;;;;;;;27.28;22.64;101070.13;5080096;28;798;-42
2021/03/10 01:06:39;;;;;;;;;;;;;;;26.95;23.35;101069.22;5079527;28;798;-42
2021/03/10 01:09:05;;;;;;;;;;;;;;;26.64;23.68;101065.41;5079120;28;829;-43
2021/03/10 01:11:30;;;;;;;;;;;;;;;27.58;22.37;101063.03;5080036;28;950;-43
2021/03/10 01:13:56;;;;;;;;;;;;;;;27.32;22.85;101057.94;5079290;28;1961;-43
2021/03/10 01:16:21;;;;;;;;;;;;;;;26.91;23.37;101059.75;5078978;28;759;-42
2021/03/10 01:18:46;;;;;;;;;;;;;;;27.09;22.98;101058.75;5079333;28;861;-42
2021/03/10 01:21:12;;;;;;;;;;;;;;;26.99;22.92;101065.13;5079281;28;802;-42
2021/03/10 01:23:37;;;;;;;;;;;;;;;26.57;23.94;101055.50;5078904;28;795;-43
2021/03/10 01:26:02;;;;;;;;;;;;;;;27.14;22.90;101062.56;5079654;28;1002;-42
2021/03/10 01:28:28;;;;;;;;;;;;;;;27.10;23.04;101058.56;5078934;28;747;-42
2021/03/10 01:30:53;;;;;;;;;;;;;;;27.05;23.05;101052.84;5078687;28;1087;-42
2021/03/10 01:33:18;;;;;;;;;;;;;;;25.89;24.77;101046.56;5079137;28;1914;-42
2021/03/10 01:35:44;;;;;;;;;;;;;;;25.92;25.11;101043.53;5078896;28;829;-42
2021/03/10 01:38:09;;;;;;;;;;;;;;;27.35;22.72;101047.63;5078934;28;819;-43
2021/03/10 01:40:34;;;;;;;;;;;;;;;27.16;23.17;101046.19;5079006;28;807;-43
2021/03/10 01:43:00;;;;;;;;;;;;;;;27.01;22.94;101022.66;5097881;28;963;-42
2021/03/10 01:48:16;;;;;;;;;;;;;;;27.54;22.80;101028.44;5099003;28;688;-42
2021/03/10 01:50:41;;;;;;;;;;;;;;;27.62;22.55;101026.53;5080919;28;804;-42
2021/03/10 01:53:07;;;;;;;;;;;;;;;27.41;22.63;101029.84;5098703;28;1970;-43
2021/03/10 01:55:32;;;;;;;;;;;;;;;27.22;22.85;101031.16;5098886;28;822;-42
2021/03/10 01:57:58;;;;;;;;;;;;;;;26.55;24.04;101030.53;5097938;28;950;-42
2021/03/10 02:00:27;;;;;;;;;;;;;;;26.99;23.42;101026.53;5098604;28;748;-43
2021/03/10 02:02:53;;;;;;;;;;;;;;;27.52;22.75;101023.22;5098672;28;779;-42
2021/03/10 02:05:19;;;;;;;;;;;;;;;27.41;22.88;101019.06;5099001;28;813;-42
2021/03/10 02:08:03;;;;;;;;;;;;;;;27.24;23.03;101018.31;5080041;28;870;-43
2021/03/10 02:10:31;;;;;;;;;;;;;;;26.73;24.06;101014.97;5098492;28;743;-43
2021/03/10 02:13:14;;;;;;;;;;;;;;;27.46;22.80;101023.94;5077772;28;1963;-43
2021/03/10 02:16:13;;;;;;;;;;;;;;;27.92;22.22;101011.47;5077989;28;771;-43
2021/03/10 02:18:41;;;;;;;;;;;;;;;27.40;22.83;101001.16;5077902;28;898;-43
2021/03/10 02:21:19;;;;;;;;;;;;;;;27.27;22.87;100999.06;5077962;28;827;-42
2021/03/10 02:23:50;;;;;;;;;;;;;;;26.64;23.98;100999.84;5078060;28;759;-42
2021/03/10 02:26:28;;;;;;;;;;;;;;;27.68;22.59;100992.56;5078072;28;1007;-42
2021/03/10 02:28:54;;;;;;;;;;;;;;;27.60;22.53;100995.28;5077721;28;802;-43
2021/03/10 02:31:19;;;;;;;;;;;;;;;27.34;22.84;100991.91;5077428;28;1129;-43
2021/03/10 02:33:44;;;;;;;;;;;;;;;27.16;23.14;100994.88;5077742;28;1914;-43
2021/03/10 02:36:10;;;;;;;;;;;;;;;26.31;24.87;100997.19;5060125;28;779;-43
2021/03/10 02:38:39;;;;;;;;;;;;;;;27.09;23.73;100996.63;5077539;28;807;-43
2021/03/10 02:41:05;;;;;;;;;;;;;;;27.56;23.10;101002.09;5060176;28;1019;-43
2021/03/10 02:43:31;;;;;;;;;;;;;;;27.34;23.21;101005.41;5059302;28;830;-42
2021/03/10 02:46:23;;;;;;;;;;;;;;;27.38;22.93;101005.91;5077229;28;804;-42
2021/03/10 02:48:48;;;;;;;;;;;;;;;26.31;24.57;101007.97;5077294;28;1056;-42
2021/03/10 02:51:15;;;;;;;;;;;;;;;27.60;23.08;101003.41;5059399;28;803;-43
2021/03/10 02:53:40;;;;;;;;;;;;;;;27.85;22.52;100995.13;5059579;28;1963;-43
2021/03/10 02:56:08;;;;;;;;;;;;;;;27.62;22.88;100994.09;5060055;28;936;-42
2021/03/10 02:58:33;;;;;;;;;;;;;;;27.29;23.33;100996.19;5059052;28;799;-42
2021/03/10 03:00:59;;;;;;;;;;;;;;;26.59;24.37;100994.13;5077386;28;752;-42
2021/03/10 03:03:24;;;;;;;;;;;;;;;27.73;22.91;101000.13;5077322;28;785;-42
2021/03/10 03:05:49;;;;;;;;;;;;;;;27.98;22.56;100997.19;5077108;28;752;-43
2021/03/10 03:08:14;;;;;;;;;;;;;;;27.40;23.31;100990.38;5077185;28;907;-42
2021/03/10 03:10:40;;;;;;;;;;;;;;;27.16;23.35;100981.38;5077738;28;955;-43
2021/03/10 03:13:06;;;;;;;;;;;;;;;27.09;23.74;100992.06;5076570;28;1902;-43
2021/03/10 03:15:53;;;;;;;;;;;;;;;27.42;23.45;100982.94;5059400;28;752;-43
2021/03/10 03:18:19;;;;;;;;;;;;;;;27.84;22.48;100985.34;5076421;28;529;-43
2021/03/10 03:20:44;;;;;;;;;;;;;;;27.56;23.10;100972.38;5076769;28;773;-43
2021/03/10 03:23:10;;;;;;;;;;;;;;;27.21;23.64;100979.00;5076886;28;728;-43
2021/03/10 03:25:35;;;;;;;;;;;;;;;27.11;23.24;100973.00;5076256;28;1018;-43
2021/03/10 03:28:02;;;;;;;;;;;;;;;27.48;23.31;100971.41;5077258;28;982;-43
2021/03/10 03:30:28;;;;;;;;;;;;;;;27.73;22.73;100973.94;5076744;28;1348;-44
2021/03/10 03:32:54;;;;;;;;;;;;;;;27.77;22.47;100974.41;5058742;28;831;-43
2021/03/10 03:35:19;;;;;;;;;;;;;;;27.35;23.35;100974.69;5058332;28;1914;-43
2021/03/10 03:37:48;;;;;;;;;;;;;;;27.18;23.51;100981.22;5058870;28;791;-44
2021/03/10 03:40:13;;;;;;;;;;;;;;;26.90;23.99;100982.50;5076598;28;749;-42
2021/03/10 03:42:39;;;;;;;;;;;;;;;27.79;22.88;100975.09;5076641;28;963;-43
2021/03/10 03:45:04;;;;;;;;;;;;;;;27.92;22.71;100977.16;5058930;28;783;-43
2021/03/10 03:47:30;;;;;;;;;;;;;;;27.55;22.96;100971.53;5075924;28;764;-42
2021/03/10 03:49:55;;;;;;;;;;;;;;;27.30;23.25;100965.44;5076389;28;842;-42
2021/03/10 03:52:20;;;;;;;;;;;;;;;26.33;24.18;100965.50;5076650;28;779;-42
2021/03/10 03:54:45;;;;;;;;;;;;;;;25.67;24.03;100959.16;5076293;28;2029;-42
2021/03/10 03:57:11;;;;;;;;;;;;;;;25.19;24.38;100957.06;5076547;28;1007;-42
2021/03/10 03:59:36;;;;;;;;;;;;;;;25.42;24.24;100964.50;5076420;28;841;-43
2021/03/10 04:02:01;;;;;;;;;;;;;;;23.68;24.33;100957.19;5076445;28;863;-41
2021/03/10 04:04:27;;;;;;;;;;;;;;;22.74;26.18;100953.66;5076268;28;764;-37
2021/03/10 04:06:52;;;;;;;;;;;;;;;22.05;25.34;100964.59;5075726;28;821;-41
2021/03/10 04:09:18;;;;;;;;;;;;;;;21.89;26.04;100955.28;5076142;28;803;-37
2021/03/10 04:11:43;;;;;;;;;;;;;;;21.76;25.70;100960.06;5076411;28;1007;-37
2021/03/10 04:14:09;;;;;;;;;;;;;;;21.70;25.69;100958.81;5076039;28;1905;-37
2021/03/10 04:17:08;;;;;;;;;;;;;;;21.34;26.31;100953.97;5076310;28;787;-37
2021/03/10 04:19:33;;;;;;;;;;;;;;;21.31;26.14;100953.41;5075616;28;772;-37
2021/03/10 04:21:59;;;;;;;;;;;;;;;21.44;26.40;100955.84;5075730;28;1169;-37
2021/03/10 04:24:24;;;;;;;;;;;;;;;21.26;26.43;100957.34;5076227;28;827;-42
2021/03/10 04:26:49;;;;;;;;;;;;;;;20.91;26.64;100954.16;5076068;28;955;-37
2021/03/10 04:29:15;;;;;;;;;;;;;;;20.98;26.32;100941.13;5058032;28;780;-37
2021/03/10 04:31:40;;;;;;;;;;;;;;;20.86;26.73;100945.69;5076042;28;1292;-38
2021/03/10 04:34:05;;;;;;;;;;;;;;;21.03;26.36;100935.34;5076092;28;1971;-36
2021/03/10 04:36:31;;;;;;;;;;;;;;;22.31;25.63;100929.13;5079219;28;739;-36
2021/03/10 04:38:56;;;;;;;;;;;;;;;23.38;26.01;100932.38;5080035;28;768;-39
2021/03/10 04:41:21;;;;;;;;;;;;;;;23.98;25.41;100920.13;5079948;28;975;-35
2021/03/10 04:43:46;;;;;;;;;;;;;;;24.45;23.60;100923.47;5080055;28;815;-40
2021/03/10 04:48:55;;;;;;;;;;;;;;;20.51;27.29;100913.06;5079035;28;637;-37
2021/03/10 04:51:21;;;;;;;;;;;;;;;21.14;26.45;100912.97;5080055;28;780;-37
2021/03/10 04:53:46;;;;;;;;;;;;;;;20.37;27.51;100913.44;5079803;28;1959;-39
2021/03/10 04:56:11;;;;;;;;;;;;;;;21.36;26.13;100913.69;5078833;28;892;-35
2021/03/10 04:58:37;;;;;;;;;;;;;;;22.80;25.49;100905.78;5079058;28;796;-40
2021/03/10 05:01:02;;;;;;;;;;;;;;;23.84;24.12;100910.78;5078775;28;558;-37
2021/03/10 05:03:27;;;;;;;;;;;;;;;24.38;23.64;100915.19;5079487;28;874;-35
2021/03/10 05:05:52;;;;;;;;;;;;;;;24.89;22.86;100917.06;5079210;28;874;-38
2021/03/10 05:08:18;;;;;;;;;;;;;;;25.06;22.78;100904.53;5079425;28;839;-38
2021/03/10 05:10:44;;;;;;;;;;;;;;;24.82;23.29;100911.50;5079571;28;951;-38
2021/03/10 05:13:09;;;;;;;;;;;;;;;24.85;23.41;100901.41;5099380;28;1906;-38
2021/03/10 05:15:35;;;;;;;;;;;;;;;25.29;22.81;100906.56;5100090;28;843;-40
2021/03/10 05:18:00;;;;;;;;;;;;;;;25.76;22.33;100906.94;5099408;28;771;-36
2021/03/10 05:20:25;;;;;;;;;;;;;;;25.18;23.14;100901.53;5099093;28;958;-37
2021/03/10 05:22:50;;;;;;;;;;;;;;;24.96;23.45;100897.63;5099559;28;799;-37
2021/03/10 05:25:16;;;;;;;;;;;;;;;25.49;22.90;100890.09;5099462;28;795;-41
2021/03/10 05:27:41;;;;;;;;;;;;;;;25.16;23.37;100890.06;5098091;28;954;-40
2021/03/10 05:30:07;;;;;;;;;;;;;;;25.72;22.76;100894.84;5099214;28;1099;-37
2021/03/10 05:32:32;;;;;;;;;;;;;;;26.10;22.33;100896.97;5081491;28;812;-38
2021/03/10 05:34:58;;;;;;;;;;;;;;;25.60;22.90;100896.16;5097772;28;1905;-41
2021/03/10 05:37:23;;;;;;;;;;;;;;;25.46;23.08;100898.50;5099199;28;878;-36
2021/03/10 05:39:48;;;;;;;;;;;;;;;25.42;23.22;100903.38;5099177;28;803;-36
2021/03/10 05:42:14;;;;;;;;;;;;;;;26.22;22.54;100910.06;5097448;28;1021;-35
2021/03/10 05:44:39;;;;;;;;;;;;;;;26.19;22.41;100916.66;5098691;28;843;-37
2021/03/10 05:47:23;;;;;;;;;;;;;;;26.32;22.47;100909.88;5097965;28;760;-35
2021/03/10 05:49:49;;;;;;;;;;;;;;;25.61;23.28;100914.03;5098732;28;1006;-37
2021/03/10 05:52:14;;;;;;;;;;;;;;;25.49;23.35;100911.63;5098822;28;796;-36
2021/03/10 05:54:41;;;;;;;;;;;;;;;26.25;22.48;100915.97;5098899;28;1987;-42
2021/03/10 05:57:07;;;;;;;;;;;;;;;26.64;21.97;100913.50;5097744;28;1033;-33
2021/03/10 05:59:32;;;;;;;;;;;;;;;26.26;22.44;100917.63;5098719;28;763;-41
2021/03/10 06:01:58;;;;;;;;;;;;;;;25.79;23.11;100909.28;5098793;28;762;-37
2021/03/10 06:04:24;;;;;;;;;;;;;;;25.84;23.17;100916.03;5098643;28;790;-34
2021/03/10 06:06:50;;;;;;;;;;;;;;;26.54;22.32;100913.69;5098586;28;830;-33
2021/03/10 06:09:16;;;;;;;;;;;;;;;26.84;21.87;100910.34;5098668;28;822;-37
2021/03/10 06:12:01;;;;;;;;;;;;;;;26.58;22.27;100914.16;5097565;28;939;-36
2021/03/10 06:14:27;;;;;;;;;;;;;;;25.88;23.04;100904.75;5098348;28;1980;-41
2021/03/10 06:17:09;;;;;;;;;;;;;;;25.67;23.40;100914.19;5098623;28;795;-36
2021/03/10 06:19:50;;;;;;;;;;;;;;;26.61;22.19;100916.53;5097652;28;839;-36
2021/03/10 06:22:16;;;;;;;;;;;;;;;26.62;22.18;100926.31;5098469;28;791;-37
2021/03/10 06:24:41;;;;;;;;;;;;;;;26.76;22.05;100922.84;5098373;28;851;-34
2021/03/10 06:27:07;;;;;;;;;;;;;;;25.88;23.23;100925.47;5097119;28;954;-36
2021/03/10 06:29:32;;;;;;;;;;;;;;;25.73;23.42;100933.38;5098213;28;1203;-36
2021/03/10 06:32:05;;;;;;;;;;;;;;;26.32;22.97;100931.44;5098093;28;811;-39
2021/03/10 06:34:30;;;;;;;;;;;;;;;26.88;22.03;100923.31;5098009;28;1981;-34
2021/03/10 06:36:55;;;;;;;;;;;;;;;27.08;21.90;100922.03;5098173;28;839;-41
2021/03/10 06:39:28;;;;;;;;;;;;;;;26.84;22.05;100929.25;5097629;28;756;-38
2021/03/10 06:41:53;;;;;;;;;;;;;;;26.06;23.14;100930.66;5096781;28;974;-34
2021/03/10 06:44:22;;;;;;;;;;;;;;;26.29;22.80;100935.34;5078078;28;1441;-36
2021/03/10 06:47:09;;;;;;;;;;;;;;;26.72;22.45;100934.19;5076416;28;820;-41
2021/03/10 06:49:35;;;;;;;;;;;;;;;26.94;22.20;100929.03;5076392;28;1433;-40
2021/03/10 06:52:07;;;;;;;;;;;;;;;27.14;21.99;100930.25;5076894;28;787;-38
2021/03/10 06:54:32;;;;;;;;;;;;;;;27.20;21.71;100936.81;5076866;28;1956;-40
2021/03/10 06:57:00;;;;;;;;;;;;;;;27.28;21.86;100932.41;5077338;28;958;-34
2021/03/10 06:59:26;;;;;;;;;;;;;;;27.25;21.94;100928.16;5076919;28;803;-33
2021/03/10 07:01:51;;;;;;;;;;;;;;;27.41;21.50;100918.28;5077147;28;764;-39
2021/03/10 07:04:17;;;;;;;;;;;;;;;27.32;21.52;100918.34;5077296;28;787;-36
2021/03/10 07:06:42;;;;;;;;;;;;;;;26.61;22.39;100917.38;5071017;28;995;-39
2021/03/10 07:09:08;;;;;;;;;;;;;;;26.99;22.24;100930.16;5096821;28;759;-34
2021/03/10 07:11:35;;;;;;;;;;;;;;;27.09;22.07;100918.34;5095865;28;943;-41
2021/03/10 07:14:00;;;;;;;;;;;;;;;27.41;21.60;100920.97;5081216;28;1902;-38
2021/03/10 07:19:28;;;;;;;;;;;;;;;27.28;22.08;100914.31;5076256;28;578;-33
2021/03/10 07:21:54;;;;;;;;;;;;;;;27.67;21.43;100903.53;5076964;28;743;-37
2021/03/10 07:24:40;;;;;;;;;;;;;;;26.95;21.90;100901.00;5076629;28;728;-36
2021/03/10 07:27:05;;;;;;;;;;;;;;;27.20;22.23;100900.84;5076142;28;1117;-41
2021/03/10 07:29:34;;;;;;;;;;;;;;;27.42;21.63;100890.22;5058541;28;1303;-43
2021/03/10 07:32:00;;;;;;;;;;;;;;;26.90;22.19;100894.28;5058672;28;828;-41
2021/03/10 07:34:25;;;;;;;;;;;;;;;27.38;21.78;100895.16;5076415;28;1984;-40
2021/03/10 07:36:51;;;;;;;;;;;;;;;27.21;21.93;100897.16;5076593;28;786;-40
2021/03/10 07:39:23;;;;;;;;;;;;;;;27.42;21.88;100890.22;5076341;28;747;-36
2021/03/10 07:41:49;;;;;;;;;;;;;;;27.56;21.50;100894.81;5085791;28;975;-37
2021/03/10 07:44:14;;;;;;;;;;;;;;;26.97;22.16;100886.31;5096762;28;823;-37
2021/03/10 07:47:11;;;;;;;;;;;;;;;27.28;21.91;100895.41;5096370;28;847;-43
2021/03/10 07:49:39;;;;;;;;;;;;;;;27.37;21.71;100891.63;5096122;28;554;-35
2021/03/10 07:52:08;;;;;;;;;;;;;;;27.06;22.17;100889.81;5096874;28;748;-43
2021/03/10 07:54:34;;;;;;;;;;;;;;;27.40;21.96;100890.41;5095891;28;1910;-35
2021/03/10 07:57:08;;;;;;;;;;;;;;;27.61;21.21;100891.59;5095490;28;951;-37
2021/03/10 07:59:34;;;;;;;;;;;;;;;27.83;21.11;100889.88;5096483;28;838;-36
2021/03/10 08:02:00;;;;;;;;;;;;;;;27.50;21.64;100879.34;5096309;28;783;-40
2021/03/10 08:04:25;;;;;;;;;;;;;;;27.06;22.19;100889.81;5096233;28;843;-43
2021/03/10 08:06:54;;;;;;;;;;;;;;;27.37;21.70;100886.22;5096616;28;802;-37
2021/03/10 08:09:20;;;;;;;;;;;;;;;28.11;21.05;100881.13;5095946;28;788;-39
2021/03/10 08:11:46;;;;;;;;;;;;;;;28.38;20.50;100880.69;5094906;28;997;-36
2021/03/10 08:14:12;;;;;;;;;;;;;;;28.62;20.14;100875.13;5078289;28;1976;-36
2021/03/10 08:16:52;;;;;;;;;;;;;;;28.74;20.22;100884.44;5095959;28;771;-38
2021/03/10 08:19:21;;;;;;;;;;;;;;;28.75;20.09;100878.00;5095985;28;945;-39
2021/03/10 08:21:50;;;;;;;;;;;;;;;27.93;21.07;100876.09;5096281;28;807;-42
2021/03/10 08:24:15;;;;;;;;;;;;;;;27.87;21.18;100877.69;5096037;28;735;-39
2021/03/10 08:26:41;;;;;;;;;;;;;;;27.94;21.23;100861.56;5095431;28;950;-42
2021/03/10 08:29:06;;;;;;;;;;;;;;;27.93;21.09;100865.28;5096141;28;986;-40
2021/03/10 08:31:41;;;;;;;;;;;;;;;28.30;20.95;100868.06;5076429;28;1013;-42
2021/03/10 08:34:06;;;;;;;;;;;;;;;28.46;20.73;100869.75;5076055;28;1913;-44
2021/03/10 08:36:32;;;;;;;;;;;;;;;28.76;20.42;100871.53;5075766;28;772;-43
2021/03/10 08:38:57;;;;;;;;;;;;;;;28.65;20.39;100862.06;5075676;28;835;-43
2021/03/10 08:41:22;;;;;;;;;;;;;;;28.16;20.87;100860.81;5076044;28;994;-43
2021/03/10 08:43:48;;;;;;;;;;;;;;;28.11;21.40;100858.69;5075940;28;824;-37
2021/03/10 08:46:13;;;;;;;;;;;;;;;28.40;21.05;100856.13;5075646;28;822;-37
2021/03/10 08:48:39;;;;;;;;;;;;;;;28.29;21.16;100844.75;5076005;28;751;-37
2021/03/10 08:51:04;;;;;;;;;;;;;;;28.24;21.28;100847.19;5075936;28;870;-35
2021/03/10 08:53:29;;;;;;;;;;;;;;;28.56;20.51;100838.84;5075650;28;1961;-42
2021/03/10 08:56:03;;;;;;;;;;;;;;;28.81;20.60;100842.03;5076063;28;995;-36
2021/03/10 08:58:28;;;;;;;;;;;;;;;28.39;20.87;100843.66;5075393;28;851;-37
2021/03/10 09:00:53;;;;;;;;;;;;;;;27.89;21.50;100839.66;5075651;28;854;-37
2021/03/10 09:03:19;;;;;;;;;;;;;;;28.16;21.23;100834.59;5075868;28;819;-35
2021/03/10 09:05:44;;;;;;;;;;;;;;;28.44;20.84;100833.09;5075742;28;803;-36
2021/03/10 09:08:11;;;;;;;;;;;;;;;28.78;20.33;100828.88;5075244;28;736;-37
2021/03/10 09:10:36;;;;;;;;;;;;;;;28.95;20.54;100825.91;5075863;28;956;-36
2021/03/10 09:13:02;;;;;;;;;;;;;;;29.07;20.20;100826.28;5076002;28;958;-42
2021/03/10 09:15:28;;;;;;;;;;;;;;;29.16;20.19;100825.09;5057578;28;1959;-34
2021/03/10 09:18:03;;;;;;;;;;;;;;;28.31;21.11;100822.94;5075656;28;818;-35
2021/03/10 09:20:32;;;;;;;;;;;;;;;28.00;21.53;100822.13;5075465;28;748;-35
2021/03/10 09:22:58;;;;;;;;;;;;;;;28.22;21.36;100819.47;5077479;28;835;-37
2021/03/10 09:25:30;;;;;;;;;;;;;;;28.59;20.62;100814.13;5079133;28;743;-34
2021/03/10 09:28:02;;;;;;;;;;;;;;;28.44;20.96;100820.41;5079139;28;1006;-34
2021/03/10 09:30:28;;;;;;;;;;;;;;;28.38;21.10;100812.22;5078698;28;1098;-35
2021/03/10 09:32:54;;;;;;;;;;;;;;;28.89;20.53;100816.72;5079179;28;764;-36
2021/03/10 09:35:20;;;;;;;;;;;;;;;28.78;20.50;100803.69;5078832;28;1973;-41
2021/03/10 09:37:50;;;;;;;;;;;;;;;28.04;21.12;100801.81;5078649;28;831;-35
2021/03/10 09:40:15;;;;;;;;;;;;;;;28.03;21.45;100794.69;5078219;28;880;-34
2021/03/10 09:42:44;;;;;;;;;;;;;;;28.06;21.56;100793.50;5079211;28;962;-34
2021/03/10 09:45:20;;;;;;;;;;;;;;;28.73;20.83;100785.31;5078647;28;755;-37
2021/03/10 09:47:48;;;;;;;;;;;;;;;28.93;20.53;100785.50;5078476;28;792;-34
2021/03/10 09:50:22;;;;;;;;;;;;;;;29.01;20.39;100783.72;5079039;28;772;-35
2021/03/10 09:52:48;;;;;;;;;;;;;;;29.16;19.95;100781.75;5078728;28;818;-33
2021/03/10 09:55:17;;;;;;;;;;;;;;;28.63;20.84;100780.22;5078487;28;1906;-35
2021/03/10 09:57:42;;;;;;;;;;;;;;;28.07;21.50;100773.53;5095540;28;1006;-34
2021/03/10 10:00:17;;;;;;;;;;;;;;;28.04;21.67;100776.63;5098543;28;779;-36
2021/03/10 10:02:46;;;;;;;;;;;;;;;28.90;20.42;100777.75;5080600;28;780;-40
2021/03/10 10:05:19;;;;;;;;;;;;;;;28.89;20.73;100775.25;5098069;28;755;-39
2021/03/10 10:07:44;;;;;;;;;;;;;;;28.60;21.88;100769.78;5097679;28;807;-38
2021/03/10 10:10:09;;;;;;;;;;;;;;;27.65;22.96;100770.44;5098338;28;998;-29
2021/03/10 10:12:41;;;;;;;;;;;;;;;28.59;21.79;100757.28;5097251;28;1006;-33
2021/03/10 10:15:06;;;;;;;;;;;;;;;28.82;21.55;100757.09;5098131;28;1968;-42
2021/03/10 10:17:40;;;;;;;;;;;;;;;28.98;20.88;100760.56;5098392;28;769;-31
2021/03/10 10:20:05;;;;;;;;;;;;;;;29.05;20.76;100747.06;5098219;28;798;-37
2021/03/10 10:22:31;;;;;;;;;;;;;;;29.16;20.76;100756.56;5098085;28;744;-33
2021/03/10 10:24:56;;;;;;;;;;;;;;;28.05;21.87;100748.53;5098079;28;744;-42
2021/03/10 10:27:21;;;;;;;;;;;;;;;28.07;21.97;100749.19;5097120;28;999;-34
2021/03/10 10:29:47;;;;;;;;;;;;;;;28.69;21.40;100744.28;5097371;28;1107;-40
2021/03/10 10:32:13;;;;;;;;;;;;;;;28.96;20.85;100754.50;5097854;28;775;-36
2021/03/10 10:34:38;;;;;;;;;;;;;;;29.05;20.89;100747.94;5079324;28;1913;-34
2021/03/10 10:37:04;;;;;;;;;;;;;;;29.14;20.80;100756.75;5077351;28;887;-42
2021/03/10 10:39:29;;;;;;;;;;;;;;;29.23;20.40;100756.59;5081898;28;843;-39
2021/03/10 10:41:54;;;;;;;;;;;;;;;29.26;20.56;100758.91;5064415;28;864;-36
2021/03/10 10:44:20;;;;;;;;;;;;;;;29.25;20.44;100751.81;5075764;28;797;-42
2021/03/10 10:49:41;;;;;;;;;;;;;;;29.46;20.35;100746.31;5075682;28;805;-43
2021/03/10 10:52:06;;;;;;;;;;;;;;;29.51;20.29;100737.59;5080931;28;823;-42
2021/03/10 10:54:32;;;;;;;;;;;;;;;29.46;20.10;100735.47;5096942;28;1898;-35
2021/03/10 10:56:57;;;;;;;;;;;;;;;29.62;19.72;100722.69;5087882;28;898;-33
2021/03/10 10:59:22;;;;;;;;;;;;;;;29.62;19.87;100711.84;5082879;28;825;-38
2021/03/10 11:01:48;;;;;;;;;;;;;;;29.61;19.84;100712.88;5088337;28;842;-38
2021/03/10 11:04:13;;;;;;;;;;;;;;;29.71;19.91;100709.81;5076459;28;822;-35
2021/03/10 11:06:39;;;;;;;;;;;;;;;29.40;19.99;100713.75;5076044;28;871;-36
2021/03/10 11:09:04;;;;;;;;;;;;;;;28.75;20.94;100710.16;5076543;28;836;-42
2021/03/10 11:11:30;;;;;;;;;;;;;;;28.51;21.27;100708.69;5083430;28;867;-36
2021/03/10 11:13:55;;;;;;;;;;;;;;;29.30;20.39;100714.13;5075998;28;1901;-37
2021/03/10 11:16:22;;;;;;;;;;;;;;;29.45;20.16;100704.00;5075890;28;887;-41
2021/03/10 11:18:47;;;;;;;;;;;;;;;29.58;20.08;100711.38;5074667;28;856;-33
2021/03/10 11:21:12;;;;;;;;;;;;;;;29.64;20.11;100711.63;5077967;28;876;-40
2021/03/10 11:23:38;;;;;;;;;;;;;;;29.66;20.05;100709.56;5096077;28;859;-32
2021/03/10 11:26:03;;;;;;;;;;;;;;;29.69;19.96;100706.44;5086568;28;907;-30
2021/03/10 11:28:28;;;;;;;;;;;;;;;29.78;19.83;100698.97;5087116;28;819;-39
2021/03/10 11:30:54;;;;;;;;;;;;;;;28.46;21.26;100690.34;5089980;28;1478;-31
2021/03/10 11:33:19;;;;;;;;;;;;;;;28.03;21.46;100689.25;5075879;28;1905;-35
2021/03/10 11:35:45;;;;;;;;;;;;;;;28.89;20.63;100688.59;5075588;28;867;-43
2021/03/10 11:38:10;;;;;;;;;;;;;;;29.24;20.14;100683.25;5084214;28;903;-35
2021/03/10 11:40:37;;;;;;;;;;;;;;;29.30;19.98;100679.75;5096054;28;852;-34
2021/03/10 11:43:02;;;;;;;;;;;;;;;29.38;20.11;100684.16;5094058;28;955;-42
2021/03/10 11:45:27;;;;;;;;;;;;;;;29.54;19.98;100682.16;5078959;28;865;-32
2021/03/10 11:47:53;;;;;;;;;;;;;;;29.48;20.10;100674.84;5082524;28;856;-36
2021/03/10 11:50:18;;;;;;;;;;;;;;;29.58;20.32;100681.56;5091922;28;1051;-35
2021/03/10 11:52:43;;;;;;;;;;;;;;;29.59;20.07;100685.13;5085212;28;895;-35
2021/03/10 11:55:10;;;;;;;;;;;;;;;29.69;20.14;100688.31;5079519;28;1976;-38
2021/03/10 11:57:36;;;;;;;;;;;;;;;29.66;20.16;100691.41;5088260;28;1005;-42
2021/03/10 12:00:01;;;;;;;;;;;;;;;29.76;20.17;100695.63;5082744;28;837;-41
2021/03/10 12:02:26;;;;;;;;;;;;;;;29.85;19.97;100690.84;5089266;28;876;-41
2021/03/10 12:04:52;;;;;;;;;;;;;;;29.60;20.04;100677.81;5093368;28;911;-42
2021/03/10 12:07:17;;;;;;;;;;;;;;;28.77;21.21;100677.47;5089259;28;844;-42
2021/03/10 12:09:43;;;;;;;;;;;;;;;27.61;22.56;100670.03;5086882;28;836;-39
2021/03/10 12:12:08;;;;;;;;;;;;;;;28.98;21.02;100660.38;5083211;28;904;-34
2021/03/10 12:14:34;;;;;;;;;;;;;;;29.41;20.53;100651.22;5094932;28;1898;-40
2021/03/10 12:16:59;;;;;;;;;;;;;;;29.40;20.42;100643.31;5076525;28;863;-44
2021/03/10 12:19:25;;;;;;;;;;;;;;;29.63;20.09;100634.06;5049426;28;1329;-41
2021/03/10 12:21:50;;;;;;;;;;;;;;;29.71;20.13;100631.19;5089293;28;981;-39
2021/03/10 12:24:15;;;;;;;;;;;;;;;29.18;20.68;100625.28;5066301;28;1078;-34
2021/03/10 12:26:41;;;;;;;;;;;;;;;28.53;21.54;100637.09;5098484;28;804;-34
2021/03/10 12:29:06;;;;;;;;;;;;;;;28.62;21.65;100628.84;5073339;28;860;-36
2021/03/10 12:31:31;;;;;;;;;;;;;;;29.20;20.76;100620.50;5075313;28;1155;-44
2021/03/10 12:33:56;;;;;;;;;;;;;;;29.41;20.52;100618.72;5080509;28;1910;-34
2021/03/10 12:36:22;;;;;;;;;;;;;;;29.57;20.26;100612.13;5097755;28;855;-43
2021/03/10 12:38:47;;;;;;;;;;;;;;;29.53;20.17;100610.03;5097191;28;890;-40
2021/03/10 12:41:12;;;;;;;;;;;;;;;29.46;20.21;100604.59;5089329;28;818;-37
2021/03/10 12:43:38;;;;;;;;;;;;;;;28.75;21.31;100588.34;5092499;28;1045;-38
2021/03/10 12:46:03;;;;;;;;;;;;;;;28.42;21.60;100597.91;5091157;28;841;-38
2021/03/10 12:48:34;;;;;;;;;;;;;;;29.05;21.12;100593.56;5081883;28;868;-32
2021/03/10 12:50:59;;;;;;;;;;;;;;;29.26;20.62;100596.38;5082514;28;865;-43
2021/03/10 12:53:25;;;;;;;;;;;;;;;29.33;20.46;100595.34;5083781;28;1967;-45
2021/03/10 12:55:51;;;;;;;;;;;;;;;29.39;20.26;100595.59;5087907;28;880;-38
2021/03/10 12:58:16;;;;;;;;;;;;;;;29.36;20.36;100596.84;5089286;28;907;-40
2021/03/10 13:00:41;;;;;;;;;;;;;;;29.51;20.32;100590.41;5095531;28;828;-32
2021/03/10 13:03:07;;;;;;;;;;;;;;;29.46;20.39;100585.63;5084220;28;859;-34
2021/03/10 13:05:32;;;;;;;;;;;;;;;29.53;20.29;100578.31;5103349;28;856;-34